Time;durP1;ratioP1;P1;durP2;ratioP2;P2;SDS_P1;SDS_P2;PMS_P1;PMS_P2;Temp;Humidity;BMP_temperature;BMP_pressure;BME280_temperature;BME280_humidity;BME280_pressure;Samples;Min_cycle;Max_cycle;Signal;HPM_P1;HPM_P2
2024/01/06 00:01:59;;;;;;;23.13;18.55;;;;;;;5.59;100.00;100109.00;5033854;28;20448;-64
2024/01/06 00:04:25;;;;;;;22.40;18.15;;;;;;;5.57;100.00;100112.31;5049520;28;20029;-65
2024/01/06 00:06:50;;;;;;;23.38;18.25;;;;;;;5.55;100.00;100108.78;5027129;28;20389;-64
2024/01/06 00:09:15;;;;;;;22.98;19.75;;;;;;;5.54;100.00;100115.63;5027290;28;20091;-64
2024/01/06 00:11:40;;;;;;;26.95;19.20;;;;;;;5.52;100.00;100113.00;5030441;28;20064;-64
2024/01/06 00:14:06;;;;;;;23.48;18.52;;;;;;;5.51;100.00;100120.63;5029391;28;20370;-64
2024/01/06 00:16:31;;;;;;;22.67;18.05;;;;;;;5.49;100.00;100128.28;5029514;28;20028;-64
2024/01/06 00:18:56;;;;;;;20.73;16.55;;;;;;;5.47;100.00;100139.34;5029582;28;20036;-64
2024/01/06 00:21:21;;;;;;;20.17;16.83;;;;;;;5.44;100.00;100142.66;5030189;28;20493;-64
2024/01/06 00:23:47;;;;;;;22.27;17.55;;;;;;;5.43;100.00;100143.47;5031367;28;20101;-64
2024/01/06 00:26:12;;;;;;;21.35;16.73;;;;;;;5.41;100.00;100148.53;5030174;28;20381;-64
2024/01/06 00:28:38;;;;;;;20.38;17.00;;;;;;;5.40;100.00;100141.63;5028836;28;20160;-64
2024/01/06 00:31:05;;;;;;;21.73;16.80;;;;;;;5.39;100.00;100151.84;5029157;28;20638;-64
2024/01/06 00:33:30;;;;;;;20.55;16.52;;;;;;;5.35;100.00;100149.97;5028921;28;20512;-64
2024/01/06 00:35:56;;;;;;;23.52;17.67;;;;;;;5.31;100.00;100148.94;5029772;28;20311;-64
2024/01/06 00:38:21;;;;;;;22.88;17.95;;;;;;;5.29;100.00;100151.47;5028114;28;20469;-64
2024/01/06 00:40:46;;;;;;;21.65;17.67;;;;;;;5.28;100.00;100159.09;5028690;28;20450;-64
2024/01/06 00:43:12;;;;;;;21.00;17.08;;;;;;;5.27;100.00;100160.78;5028945;28;20041;-64
2024/01/06 00:45:37;;;;;;;22.50;17.70;;;;;;;5.25;100.00;100161.56;5031224;28;20095;-64
2024/01/06 00:48:03;;;;;;;23.23;17.98;;;;;;;5.23;100.00;100156.34;5030863;28;20133;-64
2024/01/06 00:50:28;;;;;;;21.98;18.30;;;;;;;5.22;100.00;100164.84;5029303;28;20021;-64
2024/01/06 00:52:55;;;;;;;24.77;19.52;;;;;;;5.21;100.00;100163.13;5028526;28;20059;-64
2024/01/06 00:55:21;;;;;;;22.05;17.60;;;;;;;5.19;100.00;100164.72;5028192;28;20029;-64
2024/01/06 00:57:47;;;;;;;25.00;19.92;;;;;;;5.16;100.00;100160.31;5031504;28;20037;-64
2024/01/06 01:00:12;;;;;;;27.00;19.20;;;;;;;5.16;100.00;100174.88;5027818;28;20385;-64
2024/01/06 01:02:38;;;;;;;27.48;20.27;;;;;;;5.15;100.00;100173.09;5032529;28;20476;-64
2024/01/06 01:05:03;;;;;;;27.40;20.55;;;;;;;5.13;100.00;100177.28;5027937;28;20025;-64
2024/01/06 01:07:29;;;;;;;25.08;18.33;;;;;;;5.12;100.00;100175.56;5018855;28;20021;-64
2024/01/06 01:09:56;;;;;;;24.27;19.08;;;;;;;5.11;100.00;100178.94;5028644;28;20053;-64
2024/01/06 01:12:21;;;;;;;27.90;20.67;;;;;;;5.10;100.00;100179.72;5027395;28;20025;-64
2024/01/06 01:14:46;;;;;;;24.80;19.50;;;;;;;5.08;100.00;100176.22;5035314;28;20044;-64
2024/01/06 01:17:12;;;;;;;26.98;19.40;;;;;;;5.07;100.00;100177.03;5043072;28;20037;-64
2024/01/06 01:19:37;;;;;;;27.42;20.77;;;;;;;5.06;100.00;100186.44;5045816;28;20500;-64
2024/01/06 01:22:02;;;;;;;25.85;18.80;;;;;;;5.05;100.00;100182.13;5042736;28;20363;-64
2024/01/06 01:24:28;;;;;;;27.88;19.52;;;;;;;5.04;100.00;100194.06;5038622;28;20025;-64
2024/01/06 01:26:53;;;;;;;27.88;19.05;;;;;;;5.04;100.00;100191.50;5028586;28;20025;-64
2024/01/06 01:29:20;;;;;;;25.80;19.00;;;;;;;5.03;100.00;100194.00;5026511;28;20485;-64
2024/01/06 01:31:45;;;;;;;28.40;18.95;;;;;;;5.01;100.00;100195.63;5026688;28;20036;-64
2024/01/06 01:34:11;;;;;;;24.38;18.77;;;;;;;4.99;100.00;100203.25;5026503;28;20018;-64
2024/01/06 01:36:36;;;;;;;27.70;20.75;;;;;;;5.00;100.00;100205.00;5039981;28;20035;-64
2024/01/06 01:39:01;;;;;;;25.10;18.40;;;;;;;4.98;100.00;100206.66;5034033;28;20025;-64
2024/01/06 01:41:27;;;;;;;24.45;18.95;;;;;;;4.97;100.00;100210.00;5034763;28;20037;-64
2024/01/06 01:43:58;;;;;;;26.00;18.40;;;;;;;4.98;100.00;100209.22;5022032;28;20423;-64
2024/01/06 01:46:27;;;;;;;23.55;17.55;;;;;;;4.98;100.00;100211.78;5018489;28;20029;-64
2024/01/06 01:48:55;;;;;;;24.40;17.27;;;;;;;4.98;100.00;100222.06;5026408;28;20041;-64
2024/01/06 01:51:20;;;;;;;19.50;15.82;;;;;;;4.96;100.00;100223.69;5027337;28;20469;-64
2024/01/06 01:53:45;;;;;;;21.23;15.85;;;;;;;4.96;100.00;100227.94;5031027;28;20036;-64
2024/01/06 01:56:11;;;;;;;20.05;16.33;;;;;;;4.96;100.00;100227.94;5028185;28;20022;-64
2024/01/06 01:58:37;;;;;;;19.95;14.95;;;;;;;4.93;100.00;100234.69;5027042;28;20033;-64
2024/01/06 02:01:02;;;;;;;18.42;14.18;;;;;;;4.93;100.00;100234.69;5031098;28;20078;-64
2024/01/06 02:03:30;;;;;;;17.10;13.02;;;;;;;4.91;100.00;100232.88;5038920;28;20026;-64
2024/01/06 02:05:55;;;;;;;17.80;13.55;;;;;;;4.89;100.00;100231.91;5026753;28;20052;-63
2024/01/06 02:08:20;;;;;;;19.90;13.05;;;;;;;4.88;100.00;100232.69;5026956;28;20063;-64
2024/01/06 02:10:46;;;;;;;15.23;12.23;;;;;;;4.86;100.00;100231.75;5027385;28;20496;-63
2024/01/06 02:13:11;;;;;;;19.55;14.65;;;;;;;4.84;100.00;100236.81;5027534;28;20037;-64
2024/01/06 02:15:37;;;;;;;17.00;13.48;;;;;;;4.83;100.00;100237.63;5039832;28;20220;-64
2024/01/06 02:18:03;;;;;;;16.35;12.85;;;;;;;4.82;100.00;100247.84;5018628;28;20026;-64
2024/01/06 02:20:30;;;;;;;17.77;14.30;;;;;;;4.78;100.00;100247.72;5027710;28;20056;-64
2024/01/06 02:22:56;;;;;;;17.23;13.80;;;;;;;4.77;100.00;100252.75;5027042;28;20021;-64
2024/01/06 02:25:22;;;;;;;15.02;12.38;;;;;;;4.75;100.00;100259.53;5027048;28;20025;-64
2024/01/06 02:27:48;;;;;;;16.30;12.88;;;;;;;4.71;100.00;100263.63;5026222;28;20402;-64
2024/01/06 02:30:13;;;;;;;17.35;13.45;;;;;;;4.68;100.00;100269.50;5026766;28;20029;-64
2024/01/06 02:32:38;;;;;;;16.48;12.90;;;;;;;4.68;100.00;100263.47;5026368;28;20033;-64
2024/01/06 02:35:04;;;;;;;15.18;12.18;;;;;;;4.65;100.00;100264.22;5026414;28;20029;-64
2024/01/06 02:37:29;;;;;;;14.02;11.88;;;;;;;4.64;100.00;100272.72;5034449;28;20017;-63
2024/01/06 02:39:54;;;;;;;15.95;12.90;;;;;;;4.64;100.00;100277.00;5025599;28;20080;-64
2024/01/06 02:42:19;;;;;;;13.40;11.38;;;;;;;4.61;100.00;100281.94;5034194;28;20477;-64
2024/01/06 02:44:45;;;;;;;14.73;11.80;;;;;;;4.59;100.00;100288.72;5026432;28;20433;-64
2024/01/06 02:47:10;;;;;;;15.13;12.05;;;;;;;4.59;100.00;100293.84;5025770;28;20049;-64
2024/01/06 02:49:35;;;;;;;15.05;11.70;;;;;;;4.56;100.00;100286.88;5025524;28;20482;-64
2024/01/06 02:52:00;;;;;;;13.95;11.82;;;;;;;4.55;100.00;100293.69;5025498;28;20026;-64
2024/01/06 02:54:26;;;;;;;15.77;11.88;;;;;;;4.53;100.00;100300.44;5026491;28;20081;-64
2024/01/06 02:56:51;;;;;;;13.65;11.60;;;;;;;4.50;100.00;100305.41;5026836;28;20606;-64
2024/01/06 02:59:16;;;;;;;15.00;11.75;;;;;;;4.51;100.00;100311.44;5033349;28;20575;-64
2024/01/06 03:01:42;;;;;;;14.10;12.00;;;;;;;4.48;100.00;100312.16;5041698;28;20043;-64
2024/01/06 03:04:08;;;;;;;14.18;11.52;;;;;;;4.47;100.00;100324.91;5025452;28;20017;-64
2024/01/06 03:06:33;;;;;;;13.77;11.27;;;;;;;4.45;100.00;100332.56;5038677;28;20056;-64
2024/01/06 03:08:59;;;;;;;13.93;10.77;;;;;;;4.42;100.00;100334.97;5044435;28;20106;-64
2024/01/06 03:11:24;;;;;;;10.73;9.17;;;;;;;4.39;100.00;100340.81;5029897;28;20025;-63
2024/01/06 03:13:49;;;;;;;13.60;10.00;;;;;;;4.35;100.00;100346.63;5025871;28;20033;-64
2024/01/06 03:16:14;;;;;;;11.30;10.07;;;;;;;4.32;100.00;100347.34;5025924;28;20021;-64
2024/01/06 03:18:40;;;;;;;10.70;9.13;;;;;;;4.31;100.00;100353.28;5033942;28;20035;-64
2024/01/06 03:21:05;;;;;;;10.67;9.53;;;;;;;4.27;100.00;100350.47;5030125;28;20615;-63
2024/01/06 03:23:30;;;;;;;10.67;8.90;;;;;;;4.24;100.00;100353.78;5034060;28;20024;-64
2024/01/06 03:25:55;;;;;;;9.67;8.30;;;;;;;4.19;100.00;100357.81;5032392;28;20074;-64
2024/01/06 03:28:21;;;;;;;9.03;8.13;;;;;;;4.18;100.00;100358.59;5034208;28;20027;-64
2024/01/06 03:30:46;;;;;;;8.60;7.30;;;;;;;4.15;100.00;100359.34;5025237;28;20055;-64
2024/01/06 03:33:12;;;;;;;8.60;7.15;;;;;;;4.13;100.00;100360.06;5025586;28;20029;-64
2024/01/06 03:35:37;;;;;;;8.77;7.70;;;;;;;4.13;100.00;100362.63;5025536;28;20096;-64
2024/01/06 03:38:03;;;;;;;8.30;7.37;;;;;;;4.10;100.00;100359.91;5025986;28;20112;-64
2024/01/06 03:40:28;;;;;;;8.17;7.30;;;;;;;4.07;100.00;100370.88;5027550;28;20021;-64
2024/01/06 03:42:53;;;;;;;7.83;7.03;;;;;;;4.05;100.00;100372.47;5025480;28;20120;-64
2024/01/06 03:45:19;;;;;;;7.90;7.10;;;;;;;4.05;100.00;100378.50;5025439;28;20369;-64
2024/01/06 03:47:44;;;;;;;7.70;6.87;;;;;;;4.03;100.00;100377.53;5026113;28;20042;-64
2024/01/06 03:50:09;;;;;;;8.40;7.60;;;;;;;4.03;100.00;100384.38;5038351;28;20029;-64
2024/01/06 03:52:35;;;;;;;9.03;7.40;;;;;;;4.00;100.00;100382.50;5025460;28;20029;-63
2024/01/06 03:55:00;;;;;;;8.50;7.70;;;;;;;4.00;100.00;100392.75;5024259;28;20083;-64
2024/01/06 03:57:25;;;;;;;8.13;7.33;;;;;;;3.99;100.00;100377.31;5025219;28;20060;-64
2024/01/06 03:59:50;;;;;;;7.60;6.83;;;;;;;3.96;100.00;100383.13;5025278;28;20083;-64
2024/01/06 04:02:16;;;;;;;8.77;7.87;;;;;;;3.96;100.00;100384.03;5025841;28;20029;-64
2024/01/06 04:04:41;;;;;;;8.23;7.50;;;;;;;3.95;100.00;100391.66;5026009;28;20504;-64
2024/01/06 04:07:06;;;;;;;8.77;7.87;;;;;;;3.92;100.00;100396.63;5032003;28;20176;-64
2024/01/06 04:09:32;;;;;;;9.90;8.70;;;;;;;3.88;100.00;100399.81;5031288;28;20489;-64
2024/01/06 04:11:57;;;;;;;8.53;7.73;;;;;;;3.88;100.00;100399.81;5025009;28;20056;-64
2024/01/06 04:14:23;;;;;;;9.13;8.20;;;;;;;3.84;100.00;100396.22;5025128;28;20036;-64
2024/01/06 04:16:48;;;;;;;9.80;8.70;;;;;;;3.83;100.00;100397.88;5025378;28;20022;-64
2024/01/06 04:19:14;;;;;;;10.27;8.57;;;;;;;3.82;100.00;100393.56;5024932;28;20053;-63
2024/01/06 04:21:40;;;;;;;9.90;9.00;;;;;;;3.79;100.00;100406.25;5014064;28;20090;-64
2024/01/06 04:24:05;;;;;;;11.43;9.40;;;;;;;3.76;100.00;100405.19;5026587;28;20175;-64
2024/01/06 04:26:30;;;;;;;11.93;10.20;;;;;;;3.77;100.00;100410.41;5029141;28;20029;-64
2024/01/06 04:28:56;;;;;;;11.77;10.30;;;;;;;3.76;100.00;100418.00;5028972;28;20049;-64
2024/01/06 04:31:21;;;;;;;11.53;10.33;;;;;;;3.75;100.00;100404.31;5039834;28;20322;-64
2024/01/06 04:33:46;;;;;;;11.00;9.90;;;;;;;3.71;100.00;100417.75;5028907;28;20028;-64
2024/01/06 04:36:11;;;;;;;10.83;9.47;;;;;;;3.68;100.00;100412.47;5047575;28;20045;-64
2024/01/06 04:38:37;;;;;;;9.80;8.73;;;;;;;3.69;100.00;100427.03;5034000;28;20319;-64
2024/01/06 04:41:02;;;;;;;10.83;9.73;;;;;;;3.66;100.00;100424.31;5039350;28;20032;-64
2024/01/06 04:43:28;;;;;;;11.67;10.20;;;;;;;3.63;100.00;100430.16;5028561;28;20092;-64
2024/01/06 04:45:53;;;;;;;11.27;10.07;;;;;;;3.62;100.00;100430.09;5028215;28;20086;-63
2024/01/06 04:48:18;;;;;;;11.63;10.20;;;;;;;3.63;100.00;100429.28;5028214;28;20065;-63
2024/01/06 04:50:44;;;;;;;10.77;9.67;;;;;;;3.63;100.00;100439.53;5027896;28;20056;-64
2024/01/06 04:53:09;;;;;;;10.40;9.20;;;;;;;3.62;100.00;100432.66;5032650;28;20049;-63
2024/01/06 04:55:34;;;;;;;11.45;9.77;;;;;;;3.60;100.00;100436.00;5032580;28;20040;-64
2024/01/06 04:57:59;;;;;;;12.90;10.63;;;;;;;3.59;100.00;100444.50;5028385;28;20595;-64
2024/01/06 05:00:25;;;;;;;11.60;9.50;;;;;;;3.59;100.00;100444.50;5042245;28;20021;-63
2024/01/06 05:02:51;;;;;;;10.73;9.47;;;;;;;3.60;100.00;100451.38;5039559;28;20029;-63
2024/01/06 05:05:16;;;;;;;10.70;9.70;;;;;;;3.63;100.00;100439.53;5027524;28;20132;-64
2024/01/06 05:07:41;;;;;;;11.03;9.90;;;;;;;3.63;100.00;100452.34;5028297;28;20079;-64
2024/01/06 05:10:07;;;;;;;10.10;9.07;;;;;;;3.63;100.00;100457.47;5027714;28;20512;-64
2024/01/06 05:12:33;;;;;;;10.60;9.37;;;;;;;3.62;100.00;100448.03;5028584;28;20044;-64
2024/01/06 05:14:58;;;;;;;10.03;9.03;;;;;;;3.64;100.00;100452.41;5026991;28;20033;-63
2024/01/06 05:17:23;;;;;;;9.40;8.37;;;;;;;3.64;100.00;100461.78;5028911;28;20056;-64
2024/01/06 05:19:48;;;;;;;8.50;7.63;;;;;;;3.62;100.00;100460.84;5028077;28;20230;-63
2024/01/06 05:22:14;;;;;;;9.43;7.40;;;;;;;3.59;100.00;100467.56;5021628;28;20075;-63
2024/01/06 05:24:39;;;;;;;8.40;7.50;;;;;;;3.59;100.00;100465.00;5023440;28;20052;-64
2024/01/06 05:27:04;;;;;;;8.47;7.57;;;;;;;3.59;100.00;100467.56;5027505;28;20433;-63
2024/01/06 05:29:30;;;;;;;9.77;7.60;;;;;;;3.56;100.00;100464.81;5027868;28;20025;-64
2024/01/06 05:31:55;;;;;;;7.73;7.03;;;;;;;3.56;100.00;100479.31;5027195;28;20030;-64
2024/01/06 05:34:20;;;;;;;7.30;6.47;;;;;;;3.53;100.00;100474.91;5039854;28;20021;-64
2024/01/06 05:36:46;;;;;;;7.30;6.60;;;;;;;3.53;100.00;100482.59;5027143;28;20060;-64
2024/01/06 05:39:11;;;;;;;7.70;6.90;;;;;;;3.50;100.00;100485.00;5027366;28;20116;-64
2024/01/06 05:41:40;;;;;;;8.13;6.87;;;;;;;3.51;100.00;100496.13;5027229;28;20044;-64
2024/01/06 05:44:06;;;;;;;7.60;6.80;;;;;;;3.50;100.00;100487.56;5027175;28;20048;-64
2024/01/06 05:46:31;;;;;;;7.57;6.87;;;;;;;3.51;100.00;100501.25;5028238;28;20026;-64
2024/01/06 05:48:56;;;;;;;7.30;6.50;;;;;;;3.48;100.00;100494.25;5040364;28;20045;-64
2024/01/06 05:51:22;;;;;;;7.90;7.10;;;;;;;3.50;100.00;100499.47;5027120;28;20062;-63
2024/01/06 05:53:48;;;;;;;7.23;6.53;;;;;;;3.49;100.00;100506.25;5027241;28;20086;-63
2024/01/06 05:56:25;;;;;;;7.30;6.60;;;;;;;3.47;100.00;100506.19;5027964;28;20327;-63
2024/01/06 05:58:51;;;;;;;7.63;6.83;;;;;;;3.48;100.00;100512.19;5026894;28;20030;-63
2024/01/06 06:01:17;;;;;;;8.57;6.70;;;;;;;3.46;100.00;100512.13;5027929;28;20549;-64
2024/01/06 06:03:43;;;;;;;8.53;7.23;;;;;;;3.47;100.00;100508.75;5027843;28;20024;-64
2024/01/06 06:06:08;;;;;;;8.67;6.67;;;;;;;3.45;100.00;100507.78;5027285;28;20037;-64
2024/01/06 06:08:33;;;;;;;7.53;6.73;;;;;;;3.45;100.00;100522.28;5026563;28;20009;-64
2024/01/06 06:11:04;;;;;;;7.77;6.40;;;;;;;3.44;100.00;100526.53;5027631;28;20067;-64
2024/01/06 06:13:30;;;;;;;8.98;6.85;;;;;;;3.43;100.00;100532.44;5026736;28;20407;-64
2024/01/06 06:15:55;;;;;;;8.90;6.57;;;;;;;3.43;100.00;100529.00;5027357;28;20033;-64
2024/01/06 06:18:21;;;;;;;7.10;6.40;;;;;;;3.44;100.00;100533.31;5027690;28;20487;-64
2024/01/06 06:20:47;;;;;;;7.93;6.40;;;;;;;3.44;100.00;100541.00;5027080;28;20037;-64
2024/01/06 06:23:12;;;;;;;8.67;6.60;;;;;;;3.43;100.00;100546.94;5027334;28;20057;-64
2024/01/06 06:25:40;;;;;;;8.10;7.30;;;;;;;3.41;100.00;100549.41;5027128;28;20115;-64
2024/01/06 06:28:06;;;;;;;8.07;7.13;;;;;;;3.39;100.00;100558.69;5027021;28;20036;-64
2024/01/06 06:30:31;;;;;;;7.90;7.00;;;;;;;3.38;100.00;100561.16;5026840;28;20029;-64
2024/01/06 06:32:57;;;;;;;7.00;6.30;;;;;;;3.34;100.00;100568.69;5027422;28;20104;-64
2024/01/06 06:35:23;;;;;;;7.27;6.00;;;;;;;3.31;100.00;100563.34;5026484;28;20033;-64
2024/01/06 06:37:49;;;;;;;6.07;5.47;;;;;;;3.28;100.00;100563.19;5027069;28;20068;-64
2024/01/06 06:40:14;;;;;;;6.90;5.70;;;;;;;3.25;100.00;100568.16;5027271;28;20017;-63
2024/01/06 06:42:40;;;;;;;6.57;5.80;;;;;;;3.24;100.00;100571.50;5026869;28;20087;-63
2024/01/06 06:45:05;;;;;;;6.43;5.83;;;;;;;3.24;100.00;100574.03;5026552;28;20034;-64
2024/01/06 06:47:31;;;;;;;7.83;6.53;;;;;;;3.24;100.00;100574.03;5025081;28;20025;-64
2024/01/06 06:49:56;;;;;;;7.50;6.30;;;;;;;3.23;100.00;100582.53;5028104;28;20067;-64
2024/01/06 06:52:21;;;;;;;8.50;6.90;;;;;;;3.23;100.00;100588.56;5022746;28;20080;-64
2024/01/06 06:54:48;;;;;;;7.00;6.30;;;;;;;3.24;100.00;100594.53;5026660;28;20049;-64
2024/01/06 06:57:15;;;;;;;8.53;7.63;;;;;;;3.25;100.00;100606.56;5025728;28;20036;-64
2024/01/06 06:59:40;;;;;;;7.53;6.73;;;;;;;3.23;100.00;100603.94;5026591;28;20037;-64
2024/01/06 07:02:06;;;;;;;8.77;7.73;;;;;;;3.23;100.00;100618.41;5026212;28;20052;-64
2024/01/06 07:04:31;;;;;;;10.53;8.33;;;;;;;3.21;100.00;100620.88;5026541;28;20028;-64
2024/01/06 07:06:57;;;;;;;10.27;8.53;;;;;;;3.21;100.00;100619.97;5026129;28;20022;-64
2024/01/06 07:09:25;;;;;;;10.37;7.60;;;;;;;3.21;100.00;100627.66;5035268;28;20025;-64
2024/01/06 07:11:50;;;;;;;10.20;9.07;;;;;;;3.21;100.00;100632.78;5041034;28;20040;-63
2024/01/06 07:14:16;;;;;;;9.93;8.93;;;;;;;3.19;100.00;100640.38;5036258;28;20036;-64
2024/01/06 07:16:41;;;;;;;11.97;9.17;;;;;;;3.19;100.00;100644.63;5028223;28;20039;-64
2024/01/06 07:19:06;;;;;;;9.93;8.53;;;;;;;3.16;100.00;100636.75;5025680;28;20095;-64
2024/01/06 07:21:32;;;;;;;10.90;9.20;;;;;;;3.16;100.00;100641.88;5024760;28;20030;-64
2024/01/06 07:23:57;;;;;;;10.77;9.07;;;;;;;3.11;100.00;100650.16;5026093;28;20454;-64
2024/01/06 07:26:22;;;;;;;9.93;8.93;;;;;;;3.11;100.00;100650.16;5026121;28;20025;-64
2024/01/06 07:28:48;;;;;;;10.67;9.00;;;;;;;3.10;100.00;100648.41;5031563;28;20047;-64
2024/01/06 07:31:14;;;;;;;10.77;9.37;;;;;;;3.10;100.00;100658.66;5025409;28;20033;-64
2024/01/06 07:33:39;;;;;;;13.10;10.10;;;;;;;3.10;100.00;100658.66;5030808;28;20087;-63
2024/01/06 07:36:05;;;;;;;11.13;9.53;;;;;;;3.11;100.00;100662.09;5025105;28;20113;-64
2024/01/06 07:38:31;;;;;;;13.57;9.93;;;;;;;3.10;100.00;100658.66;5025509;28;20196;-64
2024/01/06 07:40:56;;;;;;;11.57;9.80;;;;;;;3.10;100.00;100663.78;5024066;28;20358;-64
2024/01/06 07:43:21;;;;;;;12.00;9.57;;;;;;;3.10;100.00;100662.88;5023645;28;20033;-63
2024/01/06 07:45:48;;;;;;;12.20;10.17;;;;;;;3.08;100.00;100670.47;5029049;28;20021;-64
2024/01/06 07:48:13;;;;;;;12.57;10.10;;;;;;;3.05;100.00;100667.75;5039715;28;20044;-64
2024/01/06 07:50:38;;;;;;;12.73;9.87;;;;;;;3.05;100.00;100669.41;5018520;28;20056;-64
2024/01/06 07:53:04;;;;;;;10.20;9.10;;;;;;;3.06;100.00;100682.28;5022585;28;20129;-64
2024/01/06 07:55:29;;;;;;;12.13;10.37;;;;;;;3.04;100.00;100681.31;5024173;28;20029;-64
2024/01/06 07:57:54;;;;;;;11.53;9.80;;;;;;;3.04;100.00;100681.31;5043678;28;20043;-64
2024/01/06 08:00:20;;;;;;;11.27;10.07;;;;;;;3.05;100.00;100690.78;5046603;28;20029;-64
2024/01/06 08:02:45;;;;;;;11.83;9.47;;;;;;;3.03;100.00;100689.81;5038662;28;20083;-64
2024/01/06 08:05:10;;;;;;;13.57;9.40;;;;;;;3.04;100.00;100689.00;5039696;28;20021;-64
2024/01/06 08:07:37;;;;;;;12.53;9.30;;;;;;;3.02;100.00;100695.72;5027046;28;20087;-64
2024/01/06 08:10:05;;;;;;;13.50;10.87;;;;;;;3.03;100.00;100701.72;5025370;28;20366;-64
2024/01/06 08:12:30;;;;;;;13.27;10.50;;;;;;;3.03;100.00;100701.72;5026854;28;20023;-64
2024/01/06 08:14:56;;;;;;;11.93;9.90;;;;;;;3.01;100.00;100704.19;5026733;28;20025;-63
2024/01/06 08:17:21;;;;;;;11.17;9.97;;;;;;;3.01;100.00;100714.44;5027188;28;20488;-64
2024/01/06 08:19:47;;;;;;;14.20;11.20;;;;;;;3.03;100.00;100725.66;5023980;28;20032;-64
2024/01/06 08:22:13;;;;;;;14.97;11.07;;;;;;;3.04;100.00;100729.97;5037386;28;20270;-64
2024/01/06 08:24:38;;;;;;;13.43;11.10;;;;;;;3.04;100.00;100719.72;5026225;28;20111;-64
2024/01/06 08:27:03;;;;;;;14.43;9.80;;;;;;;3.06;100.00;100733.50;5030160;28;20056;-63
2024/01/06 08:29:29;;;;;;;13.17;9.90;;;;;;;3.07;100.00;100734.41;5032616;28;20485;-64
2024/01/06 08:31:54;;;;;;;13.20;10.47;;;;;;;3.06;100.00;100738.63;5020198;28;20504;-64
2024/01/06 08:34:20;;;;;;;13.37;10.90;;;;;;;3.04;100.00;100745.34;5031307;28;20029;-64
2024/01/06 08:36:45;;;;;;;15.40;10.80;;;;;;;3.04;100.00;100752.16;5026398;28;20025;-64
2024/01/06 08:39:11;;;;;;;12.33;10.47;;;;;;;3.02;100.00;100749.50;5031788;28;20472;-64
2024/01/06 08:41:36;;;;;;;12.87;11.13;;;;;;;3.00;100.00;100751.06;5027315;28;20381;-64
2024/01/06 08:44:02;;;;;;;11.47;9.70;;;;;;;2.98;100.00;100760.34;5026937;28;20470;-64
2024/01/06 08:46:27;;;;;;;12.40;10.30;;;;;;;2.96;100.00;100761.91;5026940;28;20026;-63
2024/01/06 08:48:52;;;;;;;12.73;11.03;;;;;;;2.95;100.00;100770.41;5025653;28;20467;-64
2024/01/06 08:51:20;;;;;;;11.97;10.43;;;;;;;2.93;100.00;100766.84;5028553;28;20060;-64
2024/01/06 08:53:45;;;;;;;11.87;10.67;;;;;;;2.93;100.00;100771.97;5024584;28;20517;-63
2024/01/06 08:56:10;;;;;;;11.73;10.03;;;;;;;2.94;100.00;100783.97;5027630;28;20029;-63
2024/01/06 08:58:36;;;;;;;12.57;10.20;;;;;;;2.95;100.00;100788.31;5028506;28;20128;-64
2024/01/06 09:01:01;;;;;;;12.63;10.70;;;;;;;2.93;100.00;100790.75;5024343;28;20025;-64
2024/01/06 09:03:26;;;;;;;14.03;11.20;;;;;;;2.94;100.00;100787.41;5028865;28;20556;-64
2024/01/06 09:05:52;;;;;;;13.60;10.80;;;;;;;2.95;100.00;100794.28;5026791;28;20335;-64
2024/01/06 09:08:18;;;;;;;12.27;10.97;;;;;;;2.96;100.00;100797.75;5027957;28;20064;-64
2024/01/06 09:10:43;;;;;;;12.93;10.77;;;;;;;2.97;100.00;100804.63;5014982;28;20033;-64
2024/01/06 09:13:09;;;;;;;14.03;11.50;;;;;;;2.93;100.00;100802.69;5027350;28;20060;-64
2024/01/06 09:15:34;;;;;;;12.27;10.33;;;;;;;2.94;100.00;100804.44;5027244;28;20075;-64
2024/01/06 09:18:00;;;;;;;12.23;10.93;;;;;;;2.95;100.00;100801.97;5030193;28;20033;-64
2024/01/06 09:20:27;;;;;;;12.60;10.60;;;;;;;2.96;100.00;100808.00;5029908;28;20466;-64
2024/01/06 09:22:52;;;;;;;11.83;10.40;;;;;;;2.96;100.00;100810.56;5027206;28;20544;-63
2024/01/06 09:25:17;;;;;;;12.53;10.20;;;;;;;2.96;100.00;100815.66;5029243;28;20095;-64
2024/01/06 09:27:42;;;;;;;13.50;11.23;;;;;;;2.94;100.00;100814.69;5027123;28;20048;-64
2024/01/06 09:30:08;;;;;;;11.73;10.40;;;;;;;2.95;100.00;100824.16;5027898;28;20037;-64
2024/01/06 09:32:33;;;;;;;12.03;10.73;;;;;;;2.97;100.00;100825.09;5020519;28;20029;-64
2024/01/06 09:34:59;;;;;;;12.83;10.50;;;;;;;2.97;100.00;100831.13;5019250;28;20033;-64
2024/01/06 09:37:24;;;;;;;12.80;10.20;;;;;;;2.97;100.00;100830.22;5026057;28;20083;-64
2024/01/06 09:39:49;;;;;;;13.20;11.40;;;;;;;2.98;100.00;100843.16;5027442;28;20032;-64
2024/01/06 09:42:14;;;;;;;12.77;10.40;;;;;;;2.94;100.00;100843.75;5026158;28;20037;-64
2024/01/06 09:44:40;;;;;;;11.23;9.97;;;;;;;2.93;100.00;100844.50;5028269;28;20030;-64
2024/01/06 09:47:05;;;;;;;11.57;9.73;;;;;;;2.92;100.00;100852.09;5027213;28;20033;-64
2024/01/06 09:49:32;;;;;;;10.17;9.17;;;;;;;2.91;100.00;100855.47;5026996;28;20124;-64
2024/01/06 09:51:59;;;;;;;10.30;9.30;;;;;;;2.95;100.00;100865.13;5022775;28;20033;-64
2024/01/06 09:54:25;;;;;;;9.67;8.70;;;;;;;2.96;100.00;100869.44;5025537;28;20116;-64
2024/01/06 09:56:50;;;;;;;10.57;9.57;;;;;;;2.99;100.00;100869.63;5026644;28;20102;-64
2024/01/06 09:59:16;;;;;;;10.60;9.47;;;;;;;3.02;100.00;100874.06;5025890;28;20025;-64
2024/01/06 10:01:41;;;;;;;12.27;9.43;;;;;;;3.00;100.00;100876.53;5025720;28;20607;-64
2024/01/06 10:04:07;;;;;;;9.40;8.50;;;;;;;3.02;100.00;100877.53;5027073;28;20764;-63
2024/01/06 10:06:32;;;;;;;10.13;9.13;;;;;;;3.03;100.00;100883.50;5032618;28;20032;-64
2024/01/06 10:08:58;;;;;;;10.23;9.13;;;;;;;3.02;100.00;100879.19;5023399;28;20530;-64
2024/01/06 10:11:23;;;;;;;9.53;8.67;;;;;;;3.01;100.00;100885.97;5026008;28;20422;-64
2024/01/06 10:13:50;;;;;;;11.80;9.33;;;;;;;3.01;100.00;100888.53;5027008;28;20032;-64
2024/01/06 10:16:15;;;;;;;10.57;9.30;;;;;;;3.02;100.00;100900.56;5025904;28;20060;-64
2024/01/06 10:18:41;;;;;;;10.73;9.17;;;;;;;3.05;100.00;100904.97;5019607;28;20030;-64
2024/01/06 10:21:06;;;;;;;10.57;9.43;;;;;;;3.05;100.00;100905.88;5025918;28;20486;-63
2024/01/06 10:23:33;;;;;;;9.87;8.47;;;;;;;3.05;100.00;100895.63;5036840;28;20041;-64
2024/01/06 10:25:59;;;;;;;10.17;8.83;;;;;;;3.07;100.00;100904.31;5025528;28;20030;-64
2024/01/06 10:28:24;;;;;;;11.23;9.70;;;;;;;3.07;100.00;100903.41;5026884;28;20060;-64
2024/01/06 10:30:52;;;;;;;9.93;8.73;;;;;;;3.08;100.00;100905.16;5025114;28;20048;-64
2024/01/06 10:33:19;;;;;;;10.23;9.17;;;;;;;3.07;100.00;100904.31;5027197;28;20118;-64
2024/01/06 10:35:44;;;;;;;11.13;9.97;;;;;;;3.06;100.00;100902.50;5026215;28;20072;-64
2024/01/06 10:38:11;;;;;;;10.47;9.43;;;;;;;3.06;100.00;100901.66;5024972;28;20030;-64
2024/01/06 10:40:36;;;;;;;10.70;9.20;;;;;;;3.07;100.00;100904.31;5026064;28;20359;-64
2024/01/06 10:43:03;;;;;;;12.30;10.37;;;;;;;3.08;100.00;100915.41;5026217;28;20040;-64
2024/01/06 10:45:32;;;;;;;11.33;9.23;;;;;;;3.06;100.00;100912.75;5026051;28;20033;-64
2024/01/06 10:47:59;;;;;;;10.43;9.33;;;;;;;3.08;100.00;100921.44;5026328;28;20049;-64
2024/01/06 10:50:27;;;;;;;10.63;9.07;;;;;;;3.06;100.00;100915.31;5011587;28;20074;-64
2024/01/06 10:52:53;;;;;;;10.10;8.97;;;;;;;3.05;100.00;100923.81;5020843;28;20065;-64
2024/01/06 10:55:20;;;;;;;11.80;8.47;;;;;;;3.04;100.00;100918.59;5025244;28;20406;-64
2024/01/06 10:57:46;;;;;;;9.37;8.47;;;;;;;3.03;100.00;100916.81;5018314;28;20569;-63
2024/01/06 11:00:12;;;;;;;10.80;9.00;;;;;;;3.03;100.00;100922.81;5018267;28;20037;-64
2024/01/06 11:02:39;;;;;;;10.23;9.20;;;;;;;3.00;100.00;100928.63;5025042;28;21012;-64
2024/01/06 11:05:07;;;;;;;10.03;8.43;;;;;;;3.00;100.00;100920.94;5026168;28;20060;-64
2024/01/06 11:07:33;;;;;;;9.07;8.27;;;;;;;3.00;100.00;100922.63;5026365;28;20067;-64
2024/01/06 11:10:18;;;;;;;9.57;8.60;;;;;;;2.98;100.00;100935.34;5022295;28;20037;-64